Time;durP1;ratioP1;P1;durP2;ratioP2;P2;SDS_P1;SDS_P2;PMS_P1;PMS_P2;Temp;Humidity;BMP_temperature;BMP_pressure;BME280_temperature;BME280_humidity;BME280_pressure;Samples;Min_cycle;Max_cycle;Signal;HPM_P1;HPM_P2
2021/03/31 00:02:15;;;;;;;11.63;8.75;;;7.80;94.50;;;;;;5086497;28;20572;-69
2021/03/31 00:04:41;;;;;;;10.05;8.40;;;7.70;94.30;;;;;;5089141;28;20036;-69
2021/03/31 00:07:09;;;;;;;12.23;9.43;;;7.60;94.20;;;;;;5087624;28;20845;-69
2021/03/31 00:09:35;;;;;;;10.07;8.20;;;7.60;95.90;;;;;;5087001;28;20485;-69
2021/03/31 00:12:01;;;;;;;13.32;8.77;;;7.50;95.90;;;;;;5088651;28;20040;-69
2021/03/31 00:14:26;;;;;;;12.63;9.20;;;7.40;94.80;;;;;;5085790;28;20063;-69
2021/03/31 00:16:52;;;;;;;14.27;9.57;;;7.40;94.50;;;;;;5089553;28;20601;-68
2021/03/31 00:19:18;;;;;;;13.10;9.43;;;7.40;94.50;;;;;;5088643;28;20429;-69
2021/03/31 00:21:44;;;;;;;13.50;9.10;;;7.40;94.20;;;;;;5085954;28;20040;-69
2021/03/31 00:24:10;;;;;;;11.23;9.07;;;7.40;94.90;;;;;;5085906;28;20531;-69
2021/03/31 00:26:36;;;;;;;13.38;10.45;;;7.40;94.40;;;;;;5086561;28;20048;-69
2021/03/31 00:29:02;;;;;;;12.70;10.07;;;7.40;94.30;;;;;;5085114;28;20505;-69
2021/03/31 00:31:28;;;;;;;13.05;9.65;;;7.40;94.10;;;;;;5087394;28;20039;-69
2021/03/31 00:33:53;;;;;;;18.48;9.73;;;7.40;94.00;;;;;;5085872;28;20398;-69
2021/03/31 00:36:19;;;;;;;14.50;9.85;;;7.40;94.10;;;;;;5085401;28;20044;-69
2021/03/31 00:38:45;;;;;;;11.45;8.95;;;7.40;94.60;;;;;;5086960;28;20066;-69
2021/03/31 00:41:11;;;;;;;16.52;9.55;;;7.40;94.00;;;;;;5086718;28;20529;-68
2021/03/31 00:43:37;;;;;;;13.02;10.50;;;7.40;94.50;;;;;;5086937;28;20517;-69
2021/03/31 00:46:03;;;;;;;10.40;9.32;;;7.40;94.50;;;;;;5084566;28;20048;-69
2021/03/31 00:48:29;;;;;;;12.15;9.45;;;7.40;94.00;;;;;;5083067;28;20028;-69
2021/03/31 00:50:58;;;;;;;11.18;9.30;;;7.40;94.70;;;;;;5086443;28;20041;-69
2021/03/31 00:53:27;;;;;;;14.63;8.82;;;7.40;94.90;;;;;;5086046;28;20040;-69
2021/03/31 00:55:53;;;;;;;11.32;9.55;;;7.30;95.70;;;;;;5087336;28;20482;-69
2021/03/31 00:58:19;;;;;;;12.80;9.35;;;7.20;95.90;;;;;;5085554;28;20044;-69
2021/03/31 01:00:46;;;;;;;11.20;9.25;;;7.30;94.50;;;;;;5084515;28;20048;-69
2021/03/31 01:03:11;;;;;;;10.00;8.02;;;7.30;94.80;;;;;;5086034;28;20146;-69
2021/03/31 01:05:38;;;;;;;12.65;8.35;;;7.30;94.60;;;;;;5086581;28;20115;-69
2021/03/31 01:08:04;;;;;;;10.50;7.40;;;7.30;94.30;;;;;;5085317;28;20028;-69
2021/03/31 01:10:40;;;;;;;13.73;7.70;;;7.20;94.70;;;;;;5086391;28;20540;-69
2021/03/31 01:13:25;;;;;;;8.57;7.35;;;7.20;94.80;;;;;;5084845;28;20123;-69
2021/03/31 01:16:21;;;;;;;10.88;8.32;;;7.10;95.40;;;;;;5085538;28;20048;-69
2021/03/31 01:19:05;;;;;;;13.93;8.05;;;7.10;95.40;;;;;;5087062;28;20067;-69
2021/03/31 01:21:43;;;;;;;12.20;7.45;;;7.10;96.20;;;;;;5085993;28;20032;-69
2021/03/31 01:24:21;;;;;;;10.45;7.45;;;7.00;95.50;;;;;;5082952;28;20055;-68
2021/03/31 01:26:54;;;;;;;8.65;7.47;;;7.00;95.40;;;;;;5083416;28;20093;-69
2021/03/31 01:29:32;;;;;;;10.02;7.82;;;6.80;95.70;;;;;;5082630;28;20055;-68
2021/03/31 01:32:13;;;;;;;8.02;7.20;;;6.70;96.00;;;;;;5083600;28;20759;-69
2021/03/31 01:34:42;;;;;;;8.25;7.45;;;6.70;95.50;;;;;;5085601;28;20066;-68
2021/03/31 01:37:15;;;;;;;10.10;7.55;;;6.80;95.80;;;;;;5085699;28;20036;-68
2021/03/31 01:39:43;;;;;;;12.40;7.82;;;6.80;96.40;;;;;;5086207;28;20081;-69
2021/03/31 01:42:12;;;;;;;9.23;7.75;;;6.80;96.10;;;;;;5080208;28;20158;-68
2021/03/31 01:44:41;;;;;;;11.52;8.15;;;6.80;95.30;;;;;;5084044;28;20494;-68
2021/03/31 01:47:09;;;;;;;12.73;7.80;;;6.80;94.90;;;;;;5083785;28;20105;-68
2021/03/31 01:49:35;;;;;;;14.45;8.13;;;6.80;94.50;;;;;;5085851;28;20079;-69
2021/03/31 01:52:03;;;;;;;10.18;7.95;;;6.80;94.70;;;;;;5081915;28;20421;-68
2021/03/31 01:54:30;;;;;;;10.02;8.05;;;6.80;94.70;;;;;;5084763;28;20072;-68
2021/03/31 01:56:57;;;;;;;13.45;8.80;;;6.90;94.30;;;;;;5084999;28;20136;-68
2021/03/31 01:59:24;;;;;;;11.68;8.57;;;6.90;94.30;;;;;;5085542;28;20033;-68
2021/03/31 02:01:52;;;;;;;18.35;9.43;;;6.90;94.10;;;;;;5081515;28;20072;-68
2021/03/31 02:04:19;;;;;;;12.52;9.35;;;6.90;94.00;;;;;;5084049;28;20032;-68
2021/03/31 02:06:46;;;;;;;12.75;8.38;;;6.90;94.00;;;;;;5085486;28;20043;-69
2021/03/31 02:09:13;;;;;;;11.13;8.75;;;6.90;94.90;;;;;;5085171;28;20119;-69
2021/03/31 02:11:42;;;;;;;11.50;8.23;;;6.80;95.10;;;;;;5081740;28;20040;-69
2021/03/31 02:14:09;;;;;;;13.07;8.68;;;6.80;95.10;;;;;;5082377;28;20389;-68
2021/03/31 02:16:36;;;;;;;12.52;8.07;;;6.70;96.00;;;;;;5083804;28;20051;-68
2021/03/31 02:19:03;;;;;;;12.02;8.75;;;6.70;95.70;;;;;;5086991;28;20051;-68
2021/03/31 02:21:29;;;;;;;13.13;9.73;;;6.60;95.10;;;;;;5088657;28;20123;-68
2021/03/31 02:23:56;;;;;;;12.30;9.60;;;6.60;94.80;;;;;;5087775;28;20092;-68
2021/03/31 02:26:25;;;;;;;13.30;8.73;;;6.70;95.40;;;;;;5084782;28;20553;-68
2021/03/31 02:28:52;;;;;;;10.18;9.18;;;6.60;95.60;;;;;;5087924;28;20047;-69
2021/03/31 02:31:20;;;;;;;18.38;10.05;;;6.40;96.00;;;;;;5087577;28;20077;-68
2021/03/31 02:33:48;;;;;;;13.05;10.52;;;6.40;96.30;;;;;;5087280;28;20424;-68
2021/03/31 02:36:15;;;;;;;14.57;10.18;;;6.30;96.60;;;;;;5088448;28;20146;-68
2021/03/31 02:38:44;;;;;;;14.15;10.45;;;6.30;96.90;;;;;;5088596;28;20086;-68
2021/03/31 02:41:11;;;;;;;13.75;10.43;;;6.20;97.60;;;;;;5088099;28;20059;-69
2021/03/31 02:43:42;;;;;;;14.07;10.60;;;6.10;97.20;;;;;;5086753;28;20032;-68
2021/03/31 02:46:13;;;;;;;11.32;9.73;;;6.00;97.20;;;;;;5085112;28;20046;-68
2021/03/31 02:48:39;;;;;;;10.02;8.68;;;5.90;97.10;;;;;;5087432;28;20062;-68
2021/03/31 02:51:07;;;;;;;12.43;9.02;;;6.00;97.30;;;;;;5087204;28;20093;-69
2021/03/31 02:53:33;;;;;;;11.70;9.48;;;6.10;97.10;;;;;;5085255;28;20032;-68
2021/03/31 02:56:03;;;;;;;11.40;9.27;;;6.20;97.10;;;;;;5088382;28;20542;-68
2021/03/31 02:58:30;;;;;;;11.05;9.32;;;6.20;97.00;;;;;;5087866;28;20089;-68
2021/03/31 03:00:56;;;;;;;13.02;9.23;;;6.20;96.70;;;;;;5088941;28;20036;-69
2021/03/31 03:03:22;;;;;;;9.15;7.63;;;6.20;96.90;;;;;;5086488;28;20109;-68
2021/03/31 03:05:48;;;;;;;7.88;6.25;;;6.30;97.20;;;;;;5088322;28;20040;-68
2021/03/31 03:08:14;;;;;;;12.10;8.95;;;6.20;97.00;;;;;;5087276;28;20043;-68
2021/03/31 03:10:39;;;;;;;11.38;9.30;;;6.10;97.10;;;;;;5085091;28;20119;-68
2021/03/31 03:13:08;;;;;;;14.18;10.90;;;5.90;97.80;;;;;;5084879;28;20040;-68
2021/03/31 03:15:34;;;;;;;15.80;12.38;;;5.80;97.40;;;;;;5086662;28;20085;-68
2021/03/31 03:18:00;;;;;;;19.13;12.55;;;5.80;98.20;;;;;;5087977;28;20043;-68
2021/03/31 03:20:26;;;;;;;14.25;12.20;;;5.80;98.10;;;;;;5087398;28;20043;-68
2021/03/31 03:22:54;;;;;;;18.88;11.27;;;5.80;97.60;;;;;;5085181;28;20587;-68
2021/03/31 03:25:24;;;;;;;19.17;13.05;;;5.80;97.30;;;;;;5087739;28;20035;-68
2021/03/31 03:27:51;;;;;;;18.42;13.00;;;5.70;97.60;;;;;;5086448;28;20198;-68
2021/03/31 03:30:20;;;;;;;17.13;11.85;;;5.60;98.00;;;;;;5086674;28;20043;-68
2021/03/31 03:32:49;;;;;;;16.42;13.18;;;5.70;98.80;;;;;;5083347;28;20032;-68
2021/03/31 03:35:16;;;;;;;19.33;12.45;;;5.60;98.80;;;;;;5086211;28;20040;-68
2021/03/31 03:37:44;;;;;;;18.80;12.73;;;5.50;98.80;;;;;;5087232;28;20044;-68
2021/03/31 03:40:10;;;;;;;17.38;12.43;;;5.50;98.60;;;;;;5086048;28;20033;-69
2021/03/31 03:42:37;;;;;;;19.15;13.05;;;5.50;98.30;;;;;;5086576;28;20044;-68
2021/03/31 03:45:05;;;;;;;21.77;13.15;;;5.50;97.70;;;;;;5085919;28;20085;-68
2021/03/31 03:47:31;;;;;;;15.57;11.93;;;5.60;97.00;;;;;;5084537;28;20482;-68
2021/03/31 03:50:01;;;;;;;20.00;11.90;;;5.70;97.20;;;;;;5085649;28;20102;-68
2021/03/31 03:52:28;;;;;;;19.65;12.60;;;5.70;96.80;;;;;;5085790;28;20079;-68
2021/03/31 03:54:55;;;;;;;16.52;11.68;;;5.70;97.20;;;;;;5084907;28;20131;-68
2021/03/31 03:57:26;;;;;;;16.13;10.73;;;5.70;97.00;;;;;;5084868;28;20105;-68
2021/03/31 03:59:52;;;;;;;14.88;12.75;;;5.80;97.20;;;;;;5084911;28;20048;-68
2021/03/31 04:02:18;;;;;;;14.93;12.77;;;5.70;97.20;;;;;;5083432;28;20109;-68
2021/03/31 04:04:44;;;;;;;16.85;11.48;;;5.60;97.20;;;;;;5084989;28;20044;-68
2021/03/31 04:07:10;;;;;;;18.42;12.75;;;5.50;97.50;;;;;;5086307;28;20063;-68
2021/03/31 04:09:37;;;;;;;15.93;10.15;;;5.50;97.20;;;;;;5088067;28;20075;-68
2021/03/31 04:12:04;;;;;;;13.60;10.85;;;5.50;97.70;;;;;;5086716;28;20185;-68
2021/03/31 04:14:31;;;;;;;16.73;11.55;;;5.60;97.70;;;;;;5085673;28;20066;-68
2021/03/31 04:16:59;;;;;;;16.52;10.95;;;5.60;97.10;;;;;;5084926;28;20514;-68
2021/03/31 04:19:24;;;;;;;10.90;9.57;;;5.70;97.60;;;;;;5084656;28;20063;-68
2021/03/31 04:21:50;;;;;;;10.50;8.88;;;5.70;97.40;;;;;;5086055;28;20062;-68
2021/03/31 04:24:16;;;;;;;10.38;9.27;;;5.70;97.10;;;;;;5089762;28;20040;-68
2021/03/31 04:26:44;;;;;;;19.73;9.63;;;5.80;97.30;;;;;;5085842;28;20055;-68
2021/03/31 04:29:12;;;;;;;14.15;9.13;;;5.80;97.10;;;;;;5087774;28;20162;-68
2021/03/31 04:31:39;;;;;;;10.02;8.52;;;5.80;97.20;;;;;;5083368;28;20135;-68
2021/03/31 04:34:07;;;;;;;14.68;9.45;;;5.80;97.20;;;;;;5088834;28;20073;-68
2021/03/31 04:36:33;;;;;;;12.20;9.88;;;5.90;97.40;;;;;;5084444;28;20055;-68
2021/03/31 04:39:02;;;;;;;12.98;9.20;;;5.90;97.00;;;;;;5083188;28;20114;-68
2021/03/31 04:41:27;;;;;;;11.15;8.63;;;5.80;97.00;;;;;;5084580;28;20135;-69
2021/03/31 04:43:54;;;;;;;14.82;11.77;;;5.70;97.20;;;;;;5082842;28;20040;-68
2021/03/31 04:46:20;;;;;;;15.30;11.32;;;5.60;97.60;;;;;;5085343;28;20044;-68
2021/03/31 04:48:45;;;;;;;11.30;7.43;;;5.50;98.30;;;;;;5084223;28;20112;-68
2021/03/31 04:51:11;;;;;;;10.98;8.77;;;5.50;98.00;;;;;;5082818;28;20047;-68
2021/03/31 04:53:37;;;;;;;17.65;12.93;;;5.40;97.50;;;;;;5080816;28;20115;-68
2021/03/31 04:56:03;;;;;;;14.73;10.10;;;5.40;97.80;;;;;;5086778;28;20044;-68
2021/03/31 04:58:29;;;;;;;11.32;7.97;;;5.40;97.60;;;;;;5083781;28;20486;-68
2021/03/31 05:00:55;;;;;;;17.15;12.88;;;5.50;97.50;;;;;;5082973;28;20036;-68
2021/03/31 05:03:20;;;;;;;16.60;10.57;;;5.30;97.70;;;;;;5081340;28;20032;-68
2021/03/31 05:05:46;;;;;;;15.68;9.15;;;5.30;97.90;;;;;;5083964;28;20690;-68
2021/03/31 05:08:12;;;;;;;13.57;8.63;;;5.40;97.70;;;;;;5080100;28;20101;-68
2021/03/31 05:10:38;;;;;;;15.55;10.82;;;5.40;97.50;;;;;;5084481;28;20114;-68
2021/03/31 05:13:04;;;;;;;17.90;13.10;;;5.20;98.10;;;;;;5084755;28;20036;-68
2021/03/31 05:15:31;;;;;;;15.07;11.75;;;5.20;97.80;;;;;;5087030;28;20047;-68
2021/03/31 05:17:56;;;;;;;18.05;11.73;;;5.30;97.70;;;;;;5088462;28;20036;-68
2021/03/31 05:20:22;;;;;;;22.30;13.88;;;5.40;97.70;;;;;;5116295;27;20040;-68
2021/03/31 05:22:48;;;;;;;17.90;13.02;;;5.40;98.30;;;;;;5087001;28;20047;-68
2021/03/31 05:25:14;;;;;;;18.13;11.25;;;5.40;98.20;;;;;;5087713;28;20044;-68
2021/03/31 05:27:39;;;;;;;21.13;10.80;;;5.50;97.80;;;;;;5086996;28;20401;-68
2021/03/31 05:30:07;;;;;;;20.20;13.10;;;5.60;97.50;;;;;;5088362;28;20505;-68
2021/03/31 05:32:33;;;;;;;26.85;13.75;;;5.60;97.80;;;;;;5086328;28;20032;-68
2021/03/31 05:34:59;;;;;;;17.73;12.68;;;5.70;97.80;;;;;;5089558;28;20063;-68
2021/03/31 05:37:25;;;;;;;19.35;13.45;;;5.70;97.60;;;;;;5086333;28;20072;-68
2021/03/31 05:39:51;;;;;;;14.20;11.23;;;5.70;97.30;;;;;;5086305;28;20035;-68
2021/03/31 05:42:17;;;;;;;16.10;10.50;;;5.90;97.10;;;;;;5084426;28;20092;-68
2021/03/31 05:44:44;;;;;;;14.77;10.35;;;5.90;97.30;;;;;;5087252;28;20104;-68
2021/03/31 05:47:15;;;;;;;14.90;12.15;;;6.10;97.10;;;;;;5085498;28;20051;-68
2021/03/31 05:49:42;;;;;;;14.57;10.85;;;6.30;97.60;;;;;;5085086;28;20679;-68
2021/03/31 05:52:09;;;;;;;14.25;10.75;;;6.70;97.00;;;;;;5085488;28;20053;-68
2021/03/31 05:54:35;;;;;;;16.40;11.13;;;7.00;96.40;;;;;;5092420;28;20047;-68
2021/03/31 05:57:01;;;;;;;18.50;10.98;;;7.30;95.70;;;;;;5089625;28;20054;-68
2021/03/31 05:59:27;;;;;;;13.05;9.82;;;7.70;95.50;;;;;;5093363;28;20032;-68
2021/03/31 06:01:52;;;;;;;22.20;10.18;;;8.10;94.90;;;;;;5087283;28;20173;-68
2021/03/31 06:04:19;;;;;;;22.67;11.75;;;8.50;93.70;;;;;;5084959;28;20074;-68
2021/03/31 06:06:45;;;;;;;14.55;11.05;;;8.80;93.90;;;;;;5087227;28;20056;-68
2021/03/31 06:09:11;;;;;;;17.30;13.02;;;9.20;93.30;;;;;;5088462;28;20048;-69
2021/03/31 06:11:55;;;;;;;16.42;11.13;;;9.50;92.20;;;;;;5089010;28;20040;-68
2021/03/31 06:14:29;;;;;;;12.40;9.95;;;9.90;91.90;;;;;;5090686;28;20065;-69
2021/03/31 06:17:13;;;;;;;15.20;11.07;;;10.30;91.30;;;;;;5088546;28;20089;-68
2021/03/31 06:19:40;;;;;;;27.42;14.95;;;10.60;90.40;;;;;;5090230;28;20124;-68
2021/03/31 06:22:32;;;;;;;22.17;14.73;;;10.80;88.70;;;;;;5087312;28;20050;-68
2021/03/31 06:25:14;;;;;;;22.73;15.60;;;11.00;83.80;;;;;;5088576;28;20098;-69
2021/03/31 06:27:40;;;;;;;18.50;14.18;;;11.20;80.50;;;;;;5092124;28;20169;-68
2021/03/31 06:30:07;;;;;;;24.45;14.40;;;11.60;82.90;;;;;;5092482;28;20474;-68
2021/03/31 06:32:37;;;;;;;20.13;15.13;;;11.80;79.20;;;;;;5097355;28;20101;-69
2021/03/31 06:35:05;;;;;;;21.38;14.30;;;12.00;75.10;;;;;;5094090;28;20028;-68
2021/03/31 06:37:35;;;;;;;24.50;15.48;;;12.20;76.30;;;;;;5088961;28;20040;-69
2021/03/31 06:40:02;;;;;;;28.75;15.65;;;12.60;72.20;;;;;;5089485;28;20031;-69
2021/03/31 06:42:36;;;;;;;23.25;15.75;;;12.60;72.30;;;;;;5089470;28;20040;-68
2021/03/31 06:45:16;;;;;;;27.60;16.20;;;12.80;75.60;;;;;;5088836;28;20950;-69
2021/03/31 06:47:55;;;;;;;25.67;15.02;;;13.10;70.20;;;;;;5086029;28;20685;-68
2021/03/31 06:50:21;;;;;;;32.88;15.48;;;13.40;68.30;;;;;;5079609;28;20134;-69
2021/03/31 06:52:57;;;;;;;26.38;16.92;;;13.60;66.50;;;;;;5079411;28;20040;-69
2021/03/31 06:55:25;;;;;;;30.48;16.20;;;14.00;68.10;;;;;;5077769;28;20054;-69
2021/03/31 06:57:56;;;;;;;22.85;15.07;;;14.30;69.30;;;;;;5079100;28;20429;-68
2021/03/31 07:00:28;;;;;;;21.42;14.32;;;14.70;67.80;;;;;;5080069;28;20085;-69
2021/03/31 07:02:58;;;;;;;23.08;16.08;;;15.00;64.20;;;;;;5086048;28;20494;-69
2021/03/31 07:05:23;;;;;;;23.73;15.60;;;15.00;66.20;;;;;;5088260;28;20048;-69
2021/03/31 07:08:04;;;;;;;24.10;15.77;;;14.70;63.50;;;;;;5089003;28;20797;-69
2021/03/31 07:10:41;;;;;;;23.30;15.18;;;14.10;65.00;;;;;;5077036;28;20118;-69
2021/03/31 07:13:07;;;;;;;22.67;15.68;;;14.10;66.10;;;;;;5080164;28;20052;-69
2021/03/31 07:15:33;;;;;;;27.40;17.02;;;14.10;66.70;;;;;;5080529;28;20040;-69
2021/03/31 07:18:01;;;;;;;24.40;15.40;;;14.10;67.40;;;;;;5078612;28;20036;-69
2021/03/31 07:20:30;;;;;;;26.35;16.10;;;14.20;66.00;;;;;;5080559;28;20042;-68
2021/03/31 07:22:58;;;;;;;22.65;15.68;;;14.30;65.50;;;;;;5077908;28;20109;-69
2021/03/31 07:25:24;;;;;;;23.98;17.08;;;14.50;64.70;;;;;;5079552;28;20036;-68
2021/03/31 07:27:51;;;;;;;24.05;16.83;;;14.50;64.60;;;;;;5080387;28;20079;-68
2021/03/31 07:30:24;;;;;;;25.23;16.15;;;14.50;64.60;;;;;;5079007;28;20043;-68
2021/03/31 07:32:58;;;;;;;25.20;16.33;;;14.50;64.60;;;;;;5075843;28;20094;-68
2021/03/31 07:35:29;;;;;;;24.65;15.93;;;14.50;66.40;;;;;;5080394;28;20105;-69
2021/03/31 07:38:00;;;;;;;21.60;17.13;;;14.30;69.00;;;;;;5079714;28;20088;-69
2021/03/31 07:40:29;;;;;;;31.23;16.85;;;14.40;69.30;;;;;;5078470;28;21066;-69
2021/03/31 07:43:15;;;;;;;26.10;17.20;;;14.50;68.10;;;;;;5077868;28;20048;-69
2021/03/31 07:48:49;;;;;;;21.65;16.73;;;14.90;66.50;;;;;;5078667;28;20039;-69
2021/03/31 07:51:25;;;;;;;27.52;17.17;;;15.00;67.50;;;;;;5079511;28;20111;-69
2021/03/31 07:53:52;;;;;;;23.73;17.33;;;15.10;66.80;;;;;;5072470;28;20407;-69
2021/03/31 07:56:22;;;;;;;24.05;17.58;;;15.20;67.70;;;;;;5078086;28;20046;-69
2021/03/31 07:59:06;;;;;;;27.05;18.58;;;15.30;67.30;;;;;;5079248;28;20044;-69
2021/03/31 08:01:41;;;;;;;39.42;17.38;;;15.30;66.90;;;;;;5077293;28;20406;-69
2021/03/31 08:04:08;;;;;;;23.35;17.10;;;15.40;64.60;;;;;;5079263;28;20166;-69
2021/03/31 08:06:36;;;;;;;25.42;18.13;;;15.50;63.20;;;;;;5081103;28;20040;-69
2021/03/31 08:09:06;;;;;;;24.55;17.40;;;15.80;61.90;;;;;;5074989;28;20071;-69
2021/03/31 08:11:41;;;;;;;27.23;18.30;;;15.90;60.90;;;;;;5075685;28;20398;-70
2021/03/31 08:14:11;;;;;;;28.02;17.70;;;16.20;60.40;;;;;;5077468;28;20047;-69
2021/03/31 08:16:41;;;;;;;30.73;18.98;;;16.70;58.20;;;;;;5075958;28;20036;-70
2021/03/31 08:19:35;;;;;;;29.40;17.20;;;17.00;58.20;;;;;;5077171;28;20900;-70
2021/03/31 08:22:21;;;;;;;25.38;17.00;;;17.60;56.70;;;;;;5074555;28;20047;-70
2021/03/31 08:24:51;;;;;;;23.05;16.83;;;18.10;56.40;;;;;;5078323;28;20082;-70
2021/03/31 08:27:18;;;;;;;26.55;18.60;;;18.50;55.90;;;;;;5076858;28;20044;-70
2021/03/31 08:29:48;;;;;;;28.38;17.80;;;18.90;55.10;;;;;;5075696;28;20131;-70
2021/03/31 08:32:14;;;;;;;25.25;17.65;;;19.40;53.60;;;;;;5076606;28;20045;-70
2021/03/31 08:34:42;;;;;;;24.20;17.92;;;19.90;53.30;;;;;;5079313;28;20035;-70
2021/03/31 08:37:20;;;;;;;24.00;17.33;;;20.30;52.50;;;;;;5079765;28;20756;-70
2021/03/31 08:39:46;;;;;;;25.30;17.55;;;20.70;50.10;;;;;;5076803;28;20074;-70
2021/03/31 08:42:12;;;;;;;21.23;17.67;;;21.10;48.60;;;;;;5075375;28;20131;-70
2021/03/31 08:44:40;;;;;;;31.63;18.10;;;21.40;50.00;;;;;;5073765;28;20609;-71
2021/03/31 08:47:30;;;;;;;27.02;18.10;;;21.60;48.80;;;;;;5074109;28;20094;-70
2021/03/31 08:50:08;;;;;;;25.27;17.33;;;22.00;46.70;;;;;;5073246;28;20421;-70
2021/03/31 08:52:38;;;;;;;23.25;18.63;;;22.50;47.70;;;;;;5074754;28;20089;-70
2021/03/31 08:55:11;;;;;;;25.65;19.85;;;22.60;46.80;;;;;;5079493;28;20036;-70
2021/03/31 08:57:37;;;;;;;24.83;18.55;;;22.50;46.20;;;;;;5075893;28;20450;-70
2021/03/31 09:00:07;;;;;;;29.08;19.85;;;22.20;47.70;;;;;;5077260;28;20049;-70
2021/03/31 09:02:41;;;;;;;25.52;19.42;;;22.00;47.70;;;;;;5078130;28;20039;-70
2021/03/31 09:05:09;;;;;;;30.77;21.42;;;21.80;47.30;;;;;;5077978;28;20895;-70
2021/03/31 09:07:35;;;;;;;29.02;19.60;;;21.40;47.10;;;;;;5076336;28;20452;-69
2021/03/31 09:10:02;;;;;;;30.73;19.80;;;21.30;47.10;;;;;;5080546;28;20043;-70
2021/03/31 09:12:30;;;;;;;28.05;20.20;;;21.20;47.10;;;;;;5076361;28;20044;-69
2021/03/31 09:14:57;;;;;;;28.17;20.45;;;21.00;47.50;;;;;;5074124;28;21072;-69
2021/03/31 09:17:31;;;;;;;28.38;20.17;;;20.90;47.50;;;;;;5074380;28;20100;-69
2021/03/31 09:20:06;;;;;;;28.38;19.55;;;20.80;47.80;;;;;;5076657;28;20065;-69
2021/03/31 09:22:34;;;;;;;31.05;19.95;;;20.70;48.90;;;;;;5073534;28;20048;-69
2021/03/31 09:25:11;;;;;;;29.38;20.52;;;20.70;48.30;;;;;;5073164;28;20044;-69
2021/03/31 09:27:37;;;;;;;31.67;22.20;;;20.60;47.60;;;;;;5077365;28;21421;-69
2021/03/31 09:30:06;;;;;;;28.25;20.88;;;20.60;48.00;;;;;;5075270;28;20173;-69
2021/03/31 09:32:38;;;;;;;32.40;22.00;;;20.50;48.40;;;;;;5070536;28;20443;-68
2021/03/31 09:35:13;;;;;;;33.03;21.48;;;20.10;51.00;;;;;;5072133;28;20040;-68
2021/03/31 09:37:53;;;;;;;29.38;20.98;;;20.00;48.20;;;;;;5068889;28;20076;-69
2021/03/31 09:40:25;;;;;;;31.15;20.85;;;19.80;54.10;;;;;;5071331;28;20040;-68
2021/03/31 09:43:02;;;;;;;30.25;22.63;;;19.50;51.90;;;;;;5070845;28;20111;-69
2021/03/31 09:45:30;;;;;;;28.58;23.25;;;19.60;53.60;;;;;;5070322;28;20039;-68
2021/03/31 09:47:57;;;;;;;26.73;21.40;;;19.40;52.30;;;;;;5074600;28;20047;-69
2021/03/31 09:50:26;;;;;;;27.27;21.98;;;19.60;53.40;;;;;;5077896;28;20160;-68
2021/03/31 09:52:56;;;;;;;27.55;22.60;;;19.80;52.50;;;;;;5069556;28;20041;-69
2021/03/31 09:55:23;;;;;;;19.27;12.90;;;19.90;52.70;;;;;;5074034;28;20044;-71
2021/03/31 09:57:51;;;;;;;31.48;21.75;;;19.90;54.00;;;;;;5071157;28;20635;-70
2021/03/31 10:00:18;;;;;;;28.25;20.70;;;19.90;53.60;;;;;;5074430;28;20048;-70
2021/03/31 10:02:45;;;;;;;30.55;22.95;;;19.90;52.00;;;;;;5076058;28;20098;-70
2021/03/31 10:05:17;;;;;;;34.65;22.02;;;19.90;53.30;;;;;;5075271;28;20043;-70
2021/03/31 10:07:57;;;;;;;29.88;22.35;;;20.00;53.30;;;;;;5072106;28;20041;-71
2021/03/31 10:10:44;;;;;;;25.30;19.58;;;19.80;52.90;;;;;;5070468;28;20044;-71
2021/03/31 10:13:13;;;;;;;33.03;24.58;;;19.80;55.10;;;;;;5073785;28;20032;-71
2021/03/31 10:15:42;;;;;;;36.63;24.38;;;19.40;53.20;;;;;;5074055;28;20063;-71
2021/03/31 10:18:10;;;;;;;30.63;23.58;;;19.50;55.60;;;;;;5069888;28;20040;-71
2021/03/31 10:20:42;;;;;;;27.95;22.30;;;19.50;54.70;;;;;;5074099;28;21784;-71
2021/03/31 10:23:29;;;;;;;32.80;23.33;;;19.60;55.80;;;;;;5073748;28;20045;-71
2021/03/31 10:26:18;;;;;;;39.30;26.15;;;19.70;55.20;;;;;;5074887;28;20570;-71
2021/03/31 10:28:44;;;;;;;30.20;24.08;;;19.60;52.50;;;;;;5077895;28;20075;-71
2021/03/31 10:31:33;;;;;;;40.80;26.08;;;19.50;55.70;;;;;;5077913;28;20135;-71
2021/03/31 10:34:00;;;;;;;33.47;24.60;;;19.40;55.30;;;;;;5073599;28;20131;-71
2021/03/31 10:47:29;;;;;;;35.97;24.92;;;19.70;55.60;;;;;;5073717;28;20102;-71
2021/03/31 10:50:00;;;;;;;30.83;21.90;;;19.70;55.50;;;;;;5074199;28;20523;-71
2021/03/31 10:52:28;;;;;;;33.22;23.60;;;19.80;55.30;;;;;;5074198;28;20051;-71
2021/03/31 10:54:56;;;;;;;29.40;23.00;;;19.90;55.40;;;;;;5075556;28;20051;-71
2021/03/31 10:57:22;;;;;;;40.83;27.17;;;19.90;55.00;;;;;;5079255;28;20151;-71
2021/03/31 10:59:48;;;;;;;37.03;26.80;;;20.00;54.80;;;;;;5078190;28;20071;-72
2021/03/31 11:02:15;;;;;;;41.53;26.70;;;20.00;51.70;;;;;;5076790;28;20464;-71
2021/03/31 11:04:43;;;;;;;33.95;26.15;;;20.10;54.10;;;;;;5073888;28;20041;-71
2021/03/31 11:07:08;;;;;;;47.78;27.23;;;20.30;53.30;;;;;;5075554;28;20051;-72
2021/03/31 11:09:34;;;;;;;35.58;25.38;;;20.30;53.00;;;;;;5081440;28;20052;-72
2021/03/31 11:12:00;;;;;;;38.83;23.25;;;20.50;54.30;;;;;;5076835;28;20043;-72
2021/03/31 11:14:28;;;;;;;34.97;26.65;;;20.30;54.00;;;;;;5076978;28;20040;-72
2021/03/31 11:17:19;;;;;;;39.70;25.85;;;20.30;51.90;;;;;;5079885;28;20056;-72
2021/03/31 11:27:33;;;;;;;30.90;24.52;;;20.50;54.70;;;;;;5080365;28;20067;-72
2021/03/31 11:30:03;;;;;;;33.03;24.95;;;20.50;53.30;;;;;;5081394;28;20196;-72
2021/03/31 11:32:29;;;;;;;38.80;24.23;;;20.50;52.20;;;;;;5075253;28;22002;-72
2021/03/31 11:34:54;;;;;;;31.17;25.17;;;20.20;54.00;;;;;;5077119;28;20040;-72
2021/03/31 11:37:20;;;;;;;42.42;27.30;;;20.30;53.30;;;;;;5075439;28;20059;-72
2021/03/31 11:40:07;;;;;;;35.05;25.02;;;20.20;52.60;;;;;;5062899;28;20044;-72
2021/03/31 11:42:33;;;;;;;40.53;29.75;;;20.30;53.80;;;;;;5079103;28;20036;-72
2021/03/31 11:44:58;;;;;;;37.35;25.55;;;20.50;52.70;;;;;;5076580;28;20036;-72
2021/03/31 11:47:24;;;;;;;42.88;27.15;;;20.60;53.80;;;;;;5076555;28;20035;-72
2021/03/31 11:50:10;;;;;;;34.38;26.50;;;20.80;52.80;;;;;;5078914;28;20448;-72
2021/03/31 11:52:57;;;;;;;33.33;25.08;;;20.80;52.30;;;;;;5103825;27;20047;-71
2021/03/31 11:55:23;;;;;;;37.50;27.23;;;20.80;54.10;;;;;;5077793;28;20144;-71
2021/03/31 11:58:09;;;;;;;38.45;29.83;;;20.90;52.90;;;;;;5075555;28;20044;-71
2021/03/31 12:00:55;;;;;;;37.80;25.27;;;21.00;50.90;;;;;;5074900;28;20052;-71
2021/03/31 12:03:22;;;;;;;36.72;26.20;;;21.10;51.20;;;;;;5075021;28;20101;-71
2021/03/31 12:06:07;;;;;;;37.55;25.27;;;21.20;51.60;;;;;;5078450;28;20186;-71
2021/03/31 12:08:33;;;;;;;35.35;25.20;;;21.20;51.80;;;;;;5078627;28;21083;-71
2021/03/31 12:10:59;;;;;;;33.60;24.45;;;21.30;50.40;;;;;;5075522;28;20040;-72
2021/03/31 12:13:25;;;;;;;32.17;24.77;;;21.40;48.80;;;;;;5079075;28;20040;-71
2021/03/31 12:15:50;;;;;;;34.40;26.20;;;21.40;49.30;;;;;;5078300;28;20650;-69
2021/03/31 12:18:16;;;;;;;32.83;21.17;;;21.50;48.20;;;;;;5070317;28;20522;-69
2021/03/31 12:20:42;;;;;;;34.88;24.00;;;21.70;45.40;;;;;;5074287;28;20052;-69
2021/03/31 12:23:07;;;;;;;29.55;20.23;;;22.00;46.20;;;;;;5074249;28;20065;-69
2021/03/31 12:25:34;;;;;;;32.13;23.30;;;22.20;45.70;;;;;;5077261;28;20044;-69
2021/03/31 12:28:01;;;;;;;26.70;20.90;;;22.40;45.60;;;;;;5102660;27;20075;-69
2021/03/31 12:30:28;;;;;;;29.33;22.55;;;22.60;43.60;;;;;;5077951;28;20037;-69
2021/03/31 12:33:14;;;;;;;33.10;23.67;;;22.70;41.10;;;;;;5096526;27;20043;-70
2021/03/31 12:35:59;;;;;;;33.60;27.55;;;22.80;41.60;;;;;;5078876;28;20043;-69
2021/03/31 12:38:25;;;;;;;33.20;25.88;;;22.90;42.70;;;;;;5075572;28;20066;-69
2021/03/31 12:40:51;;;;;;;30.95;22.63;;;23.00;42.50;;;;;;5079510;28;20131;-69
2021/03/31 12:43:17;;;;;;;33.80;24.63;;;23.00;44.00;;;;;;5075072;28;20106;-70
2021/03/31 12:46:03;;;;;;;30.00;23.52;;;23.10;43.70;;;;;;5063446;28;20051;-69
2021/03/31 12:48:28;;;;;;;44.28;23.48;;;23.20;41.20;;;;;;5073142;28;20117;-70
2021/03/31 12:51:19;;;;;;;27.63;22.35;;;23.20;39.90;;;;;;5099694;27;20044;-69
2021/03/31 12:53:51;;;;;;;34.22;20.60;;;23.30;42.20;;;;;;5075172;28;20054;-70
2021/03/31 12:56:19;;;;;;;27.98;17.27;;;23.30;41.30;;;;;;5077786;28;20185;-69
2021/03/31 12:58:45;;;;;;;24.00;18.10;;;23.30;39.10;;;;;;5074279;28;20050;-70
2021/03/31 13:01:17;;;;;;;35.47;23.40;;;23.30;38.20;;;;;;5076500;28;20036;-70
2021/03/31 13:03:43;;;;;;;33.58;23.10;;;23.30;39.90;;;;;;5077829;28;20035;-69
2021/03/31 13:06:09;;;;;;;26.42;20.52;;;23.40;40.70;;;;;;5078652;28;20040;-70
2021/03/31 13:08:35;;;;;;;18.10;13.85;;;23.30;40.60;;;;;;5077089;28;20070;-70
2021/03/31 13:11:01;;;;;;;13.60;10.00;;;23.30;36.90;;;;;;5076260;28;20040;-70